sensor_id;sensor_type;location;lat;lon;timestamp;temperature;humidity
15152;DHT22;7676;50.900;6.234;2023-02-24T00:03:12;9.20;99.90
15152;DHT22;7676;50.900;6.234;2023-02-24T00:18:15;8.30;99.90
15152;DHT22;7676;50.900;6.234;2023-02-24T00:33:18;7.20;99.90
15152;DHT22;7676;50.900;6.234;2023-02-24T00:48:24;7.00;99.90
15152;DHT22;7676;50.900;6.234;2023-02-24T01:03:31;6.70;99.90
15152;DHT22;7676;50.900;6.234;2023-02-24T01:18:33;6.80;99.90
15152;DHT22;7676;50.900;6.234;2023-02-24T01:33:36;7.20;99.90
15152;DHT22;7676;50.900;6.234;2023-02-24T01:48:39;8.00;99.90
15152;DHT22;7676;50.900;6.234;2023-02-24T02:03:43;8.10;99.90
15152;DHT22;7676;50.900;6.234;2023-02-24T02:18:50;8.00;99.90
15152;DHT22;7676;50.900;6.234;2023-02-24T02:49:25;7.70;99.90
15152;DHT22;7676;50.900;6.234;2023-02-24T03:04:31;6.70;99.90
15152;DHT22;7676;50.900;6.234;2023-02-24T03:19:38;7.20;99.90
15152;DHT22;7676;50.900;6.234;2023-02-24T03:34:51;7.40;99.90
15152;DHT22;7676;50.900;6.234;2023-02-24T03:49:56;7.70;99.90
15152;DHT22;7676;50.900;6.234;2023-02-24T04:05:10;7.90;99.90
15152;DHT22;7676;50.900;6.234;2023-02-24T04:20:28;7.80;99.90
15152;DHT22;7676;50.900;6.234;2023-02-24T04:35:34;8.00;99.90
15152;DHT22;7676;50.900;6.234;2023-02-24T04:50:40;8.00;99.90
15152;DHT22;7676;50.900;6.234;2023-02-24T05:05:51;8.00;99.90
15152;DHT22;7676;50.900;6.234;2023-02-24T05:20:55;8.30;99.90
15152;DHT22;7676;50.900;6.234;2023-02-24T05:36:17;8.30;99.90
15152;DHT22;7676;50.900;6.234;2023-02-24T05:51:20;8.10;99.90
15152;DHT22;7676;50.900;6.234;2023-02-24T06:06:26;8.00;99.90
15152;DHT22;7676;50.900;6.234;2023-02-24T06:21:30;8.00;99.90
15152;DHT22;7676;50.900;6.234;2023-02-24T06:36:33;8.00;99.90
15152;DHT22;7676;50.900;6.234;2023-02-24T06:51:36;7.60;99.90
15152;DHT22;7676;50.900;6.234;2023-02-24T07:06:40;7.40;99.90
15152;DHT22;7676;50.900;6.234;2023-02-24T07:21:44;7.20;99.90
15152;DHT22;7676;50.900;6.234;2023-02-24T07:36:55;7.10;99.90
15152;DHT22;7676;50.900;6.234;2023-02-24T07:51:58;7.10;99.90
15152;DHT22;7676;50.900;6.234;2023-02-24T08:07:02;7.10;99.90
15152;DHT22;7676;50.900;6.234;2023-02-24T08:22:10;7.30;99.90
15152;DHT22;7676;50.900;6.234;2023-02-24T08:54:01;7.10;99.90
15152;DHT22;7676;50.900;6.234;2023-02-24T09:09:05;7.10;99.90
15152;DHT22;7676;50.900;6.234;2023-02-24T09:24:25;7.20;99.90
15152;DHT22;7676;50.900;6.234;2023-02-24T09:39:33;7.20;99.90
15152;DHT22;7676;50.900;6.234;2023-02-24T09:54:55;7.00;99.90
15152;DHT22;7676;50.900;6.234;2023-02-24T10:10:20;6.90;99.90
15152;DHT22;7676;50.900;6.234;2023-02-24T10:40:53;7.40;99.90
15152;DHT22;7676;50.900;6.234;2023-02-24T10:56:19;7.30;99.90
15152;DHT22;7676;50.900;6.234;2023-02-24T11:11:33;7.00;99.90
15152;DHT22;7676;50.900;6.234;2023-02-24T11:26:56;8.60;99.90
15152;DHT22;7676;50.900;6.234;2023-02-24T11:42:02;6.60;99.90
15152;DHT22;7676;50.900;6.234;2023-02-24T11:57:13;5.50;99.90
15152;DHT22;7676;50.900;6.234;2023-02-24T12:45:57;6.60;99.90
15152;DHT22;7676;50.900;6.234;2023-02-24T13:16:32;6.50;99.90
15152;DHT22;7676;50.900;6.234;2023-02-24T13:31:41;6.50;99.90
15152;DHT22;7676;50.900;6.234;2023-02-24T14:01:57;6.50;99.90
15152;DHT22;7676;50.900;6.234;2023-02-24T14:17:00;6.50;99.90
15152;DHT22;7676;50.900;6.234;2023-02-24T14:32:03;6.50;99.90
15152;DHT22;7676;50.900;6.234;2023-02-24T14:47:09;6.50;99.90
15152;DHT22;7676;50.900;6.234;2023-02-24T15:02:15;6.40;99.90
15152;DHT22;7676;50.900;6.234;2023-02-24T15:17:21;6.40;99.90
15152;DHT22;7676;50.900;6.234;2023-02-24T15:32:25;6.40;99.90
15152;DHT22;7676;50.900;6.234;2023-02-24T15:47:42;6.30;99.90
15152;DHT22;7676;50.900;6.234;2023-02-24T16:02:46;6.40;99.90
15152;DHT22;7676;50.900;6.234;2023-02-24T16:17:49;6.30;99.90
15152;DHT22;7676;50.900;6.234;2023-02-24T16:32:58;6.40;99.90
15152;DHT22;7676;50.900;6.234;2023-02-24T16:48:04;6.30;99.90
15152;DHT22;7676;50.900;6.234;2023-02-24T17:03:34;6.30;99.90
15152;DHT22;7676;50.900;6.234;2023-02-24T17:18:38;6.40;99.90
15152;DHT22;7676;50.900;6.234;2023-02-24T17:33:41;6.70;99.90
15152;DHT22;7676;50.900;6.234;2023-02-24T17:48:44;6.80;99.90
15152;DHT22;7676;50.900;6.234;2023-02-24T18:03:46;6.90;99.90
15152;DHT22;7676;50.900;6.234;2023-02-24T18:18:49;6.90;99.90
15152;DHT22;7676;50.900;6.234;2023-02-24T18:33:52;7.00;99.90
15152;DHT22;7676;50.900;6.234;2023-02-24T18:48:56;7.10;99.90
15152;DHT22;7676;50.900;6.234;2023-02-24T19:04:00;7.00;99.90
15152;DHT22;7676;50.900;6.234;2023-02-24T19:19:03;7.00;99.90
15152;DHT22;7676;50.900;6.234;2023-02-24T19:34:12;7.00;99.90
15152;DHT22;7676;50.900;6.234;2023-02-24T19:49:16;6.80;99.90
15152;DHT22;7676;50.900;6.234;2023-02-24T20:04:21;6.70;99.90
15152;DHT22;7676;50.900;6.234;2023-02-24T20:19:25;6.80;99.90
15152;DHT22;7676;50.900;6.234;2023-02-24T20:34:28;6.90;99.90
15152;DHT22;7676;50.900;6.234;2023-02-24T20:49:31;6.90;99.90
15152;DHT22;7676;50.900;6.234;2023-02-24T21:04:35;6.70;99.90
15152;DHT22;7676;50.900;6.234;2023-02-24T21:19:38;6.90;99.90
15152;DHT22;7676;50.900;6.234;2023-02-24T21:34:41;6.80;99.90
15152;DHT22;7676;50.900;6.234;2023-02-24T21:49:44;6.60;99.90
15152;DHT22;7676;50.900;6.234;2023-02-24T22:04:48;6.60;99.90
15152;DHT22;7676;50.900;6.234;2023-02-24T22:19:50;6.50;99.90
15152;DHT22;7676;50.900;6.234;2023-02-24T22:34:53;6.20;99.90
15152;DHT22;7676;50.900;6.234;2023-02-24T22:49:56;6.20;99.90
15152;DHT22;7676;50.900;6.234;2023-02-24T23:04:59;6.10;99.90
15152;DHT22;7676;50.900;6.234;2023-02-24T23:20:02;6.10;99.90
15152;DHT22;7676;50.900;6.234;2023-02-24T23:35:06;6.20;99.90
15152;DHT22;7676;50.900;6.234;2023-02-24T23:50:09;6.00;99.90
